Hovedside
METAR-TAF:

METAR-TAF

Lufthavner :

Florø, Norge

Florø lufthavn

breddegrad: 61-35N, lengdegrad: 005-02E, høyde over havet: 0 m

Gjeldene værobservasjon

Denne rapporten ble laget for 22 minutter siden, klokken 04:20 UTC
Vind 8 kt fra Nord
Temperatur 3°C
Luftfuktighet 56%
Trykk 1004 hPa
Sikt 10 km eller mer
Få skyer i en høyde av 3000 ft

METAR: ENFL 250420Z 01008KT 9999 FEW030 03/M05 Q1004

Tid: 06:42 (04:42 UTC)

Varsel

Denne rapporten ble laget for 2 timer og 42 minutter siden, klokken 02:00 UTC
Varsel gyldig fra 25. klokken 04 UTC til 25. klokken 12 UTC
Vind 8 kt fra Nord
Sikt 10 km eller mer
Få skyer i en høyde av 3000 ft, Tårnskyer (cumulus).
Blir
fra 25. klokken 10 UTC til 25. klokken 12 UTC
Vind 18 kt fra Nord

TAF: ENFL 250200Z 2504/2512 36008KT 9999 FEW030TCU BECMG 2510/2512 35018KT

Værobservasjoner og værvarsel for over 4000 flyplasser (METAR- og TAF-rapporter).

Tilgjengelige stasjoner er representert av de røde og gule prikkene på kartet.

Hold musepekeren over prikken for å se navnet på stasjonen.

Klikk så for å se værobservasjoner og -varsler.

For å forandre kartet kan du klikke på den grønne knappen med svart kryss for å zoome inn, på den grønne knappen med strek for å zoome ut, eller på de grønne pilene for å se tilstøtende kart.


METAR-TAF: